sensor_id;sensor_type;location;lat;lon;timestamp;pressure;altitude;pressure_sealevel;temperature;humidity
34500;BME280;20745;50.882;6.962;2023-02-15T00:01:33;102366.09;;;4.78;100.00
34500;BME280;20745;50.882;6.962;2023-02-15T00:04:00;102353.69;;;4.77;100.00
34500;BME280;20745;50.882;6.962;2023-02-15T00:06:27;102351.84;;;4.77;100.00
34500;BME280;20745;50.882;6.962;2023-02-15T00:08:54;102350.03;;;4.78;100.00
34500;BME280;20745;50.882;6.962;2023-02-15T00:11:21;102346.19;;;4.82;100.00
34500;BME280;20745;50.882;6.962;2023-02-15T00:16:35;102343.81;;;4.77;100.00
34500;BME280;20745;50.882;6.962;2023-02-15T00:19:02;102342.78;;;4.80;100.00
34500;BME280;20745;50.882;6.962;2023-02-15T00:21:30;102345.97;;;4.72;100.00
34500;BME280;20745;50.882;6.962;2023-02-15T00:23:58;102338.78;;;4.73;100.00
34500;BME280;20745;50.882;6.962;2023-02-15T00:26:26;102340.69;;;4.58;100.00
34500;BME280;20745;50.882;6.962;2023-02-15T00:28:53;102342.72;;;4.55;100.00
34500;BME280;20745;50.882;6.962;2023-02-15T00:31:20;102343.69;;;4.54;100.00
34500;BME280;20745;50.882;6.962;2023-02-15T00:33:47;102332.97;;;4.54;100.00
34500;BME280;20745;50.882;6.962;2023-02-15T00:36:13;102328.56;;;4.53;100.00
34500;BME280;20745;50.882;6.962;2023-02-15T00:38:40;102334.69;;;4.55;100.00
34500;BME280;20745;50.882;6.962;2023-02-15T00:41:07;102334.38;;;4.59;100.00
34500;BME280;20745;50.882;6.962;2023-02-15T00:43:34;102333.50;;;4.59;100.00
34500;BME280;20745;50.882;6.962;2023-02-15T00:46:03;102338.34;;;4.54;100.00
34500;BME280;20745;50.882;6.962;2023-02-15T00:48:30;102329.53;;;4.52;100.00
34500;BME280;20745;50.882;6.962;2023-02-15T00:50:59;102337.66;;;4.50;100.00
34500;BME280;20745;50.882;6.962;2023-02-15T00:53:26;102337.97;;;4.46;100.00
34500;BME280;20745;50.882;6.962;2023-02-15T00:55:56;102329.00;;;4.47;100.00
34500;BME280;20745;50.882;6.962;2023-02-15T00:58:23;102332.63;;;4.46;100.00
34500;BME280;20745;50.882;6.962;2023-02-15T01:00:50;102324.16;;;4.39;100.00
34500;BME280;20745;50.882;6.962;2023-02-15T01:03:18;102326.75;;;4.41;100.00
34500;BME280;20745;50.882;6.962;2023-02-15T01:05:47;102321.69;;;4.36;100.00
34500;BME280;20745;50.882;6.962;2023-02-15T01:08:15;102332.28;;;4.38;100.00
34500;BME280;20745;50.882;6.962;2023-02-15T01:10:41;102324.47;;;4.35;100.00
34500;BME280;20745;50.882;6.962;2023-02-15T01:13:10;102327.16;;;4.35;100.00
34500;BME280;20745;50.882;6.962;2023-02-15T01:15:36;102326.38;;;4.33;100.00
34500;BME280;20745;50.882;6.962;2023-02-15T01:18:03;102328.53;;;4.28;100.00
34500;BME280;20745;50.882;6.962;2023-02-15T01:20:29;102329.06;;;4.33;100.00
34500;BME280;20745;50.882;6.962;2023-02-15T01:22:57;102330.63;;;4.23;100.00
34500;BME280;20745;50.882;6.962;2023-02-15T01:25:23;102329.28;;;4.30;100.00
34500;BME280;20745;50.882;6.962;2023-02-15T01:27:50;102327.44;;;4.30;100.00
34500;BME280;20745;50.882;6.962;2023-02-15T01:30:17;102308.69;;;4.18;100.00
34500;BME280;20745;50.882;6.962;2023-02-15T01:32:43;102313.66;;;4.24;100.00
34500;BME280;20745;50.882;6.962;2023-02-15T01:35:10;102315.75;;;4.19;100.00
34500;BME280;20745;50.882;6.962;2023-02-15T01:37:37;102321.38;;;4.28;100.00
34500;BME280;20745;50.882;6.962;2023-02-15T01:40:07;102317.06;;;4.26;100.00
34500;BME280;20745;50.882;6.962;2023-02-15T01:42:34;102307.00;;;4.17;100.00
34500;BME280;20745;50.882;6.962;2023-02-15T01:50:40;102308.56;;;4.07;100.00
34500;BME280;20745;50.882;6.962;2023-02-15T01:53:32;102301.53;;;4.18;100.00
34500;BME280;20745;50.882;6.962;2023-02-15T01:56:13;102307.94;;;4.16;100.00
34500;BME280;20745;50.882;6.962;2023-02-15T01:58:42;102293.47;;;4.06;100.00
34500;BME280;20745;50.882;6.962;2023-02-15T02:01:09;102308.22;;;4.11;100.00
34500;BME280;20745;50.882;6.962;2023-02-15T02:06:30;102298.31;;;4.13;100.00
34500;BME280;20745;50.882;6.962;2023-02-15T02:08:58;102290.38;;;4.12;100.00
34500;BME280;20745;50.882;6.962;2023-02-15T02:11:25;102290.59;;;4.09;100.00
34500;BME280;20745;50.882;6.962;2023-02-15T02:13:52;102298.81;;;4.06;100.00
34500;BME280;20745;50.882;6.962;2023-02-15T02:16:24;102295.22;;;3.93;100.00
34500;BME280;20745;50.882;6.962;2023-02-15T02:19:10;102274.72;;;3.93;100.00
34500;BME280;20745;50.882;6.962;2023-02-15T02:25:30;102282.81;;;3.92;100.00
34500;BME280;20745;50.882;6.962;2023-02-15T02:31:31;102280.06;;;3.93;100.00
34500;BME280;20745;50.882;6.962;2023-02-15T02:34:11;102272.03;;;3.93;100.00
34500;BME280;20745;50.882;6.962;2023-02-15T02:42:42;102259.16;;;3.86;100.00
34500;BME280;20745;50.882;6.962;2023-02-15T02:47:46;102240.41;;;3.73;100.00
34500;BME280;20745;50.882;6.962;2023-02-15T02:50:20;102244.97;;;3.85;100.00
34500;BME280;20745;50.882;6.962;2023-02-15T02:52:49;102241.09;;;3.77;100.00
34500;BME280;20745;50.882;6.962;2023-02-15T02:55:30;102245.97;;;3.70;100.00
34500;BME280;20745;50.882;6.962;2023-02-15T02:58:06;102244.16;;;3.71;100.00
34500;BME280;20745;50.882;6.962;2023-02-15T03:00:44;102240.53;;;3.72;100.00
34500;BME280;20745;50.882;6.962;2023-02-15T03:05:49;102232.38;;;3.61;100.00
34500;BME280;20745;50.882;6.962;2023-02-15T03:08:20;102229.72;;;3.73;100.00
34500;BME280;20745;50.882;6.962;2023-02-15T03:10:53;102226.09;;;3.74;100.00
34500;BME280;20745;50.882;6.962;2023-02-15T03:13:21;102223.03;;;3.54;100.00
34500;BME280;20745;50.882;6.962;2023-02-15T03:15:48;102219.00;;;3.61;100.00
34500;BME280;20745;50.882;6.962;2023-02-15T03:18:39;102223.94;;;3.67;100.00
34500;BME280;20745;50.882;6.962;2023-02-15T03:21:07;102224.97;;;3.64;100.00
34500;BME280;20745;50.882;6.962;2023-02-15T03:23:35;102224.88;;;3.66;100.00
34500;BME280;20745;50.882;6.962;2023-02-15T03:26:05;102222.41;;;3.63;100.00
34500;BME280;20745;50.882;6.962;2023-02-15T03:28:38;102228.19;;;3.57;100.00
34500;BME280;20745;50.882;6.962;2023-02-15T03:31:06;102222.41;;;3.63;100.00
34500;BME280;20745;50.882;6.962;2023-02-15T03:33:35;102220.91;;;3.59;100.00
34500;BME280;20745;50.882;6.962;2023-02-15T03:36:11;102214.84;;;3.57;100.00
34500;BME280;20745;50.882;6.962;2023-02-15T03:41:45;102208.38;;;3.47;100.00
34500;BME280;20745;50.882;6.962;2023-02-15T03:44:27;102209.41;;;3.44;100.00
34500;BME280;20745;50.882;6.962;2023-02-15T03:47:04;102206.94;;;3.41;100.00
34500;BME280;20745;50.882;6.962;2023-02-15T03:49:54;102205.13;;;3.42;100.00
34500;BME280;20745;50.882;6.962;2023-02-15T03:52:25;102198.63;;;3.46;100.00
34500;BME280;20745;50.882;6.962;2023-02-15T03:54:52;102202.25;;;3.45;100.00
34500;BME280;20745;50.882;6.962;2023-02-15T03:57:25;102204.25;;;3.41;100.00
34500;BME280;20745;50.882;6.962;2023-02-15T04:00:21;102205.91;;;3.44;100.00
34500;BME280;20745;50.882;6.962;2023-02-15T04:05:46;102216.00;;;3.39;100.00
34500;BME280;20745;50.882;6.962;2023-02-15T04:08:13;102216.69;;;3.42;100.00
34500;BME280;20745;50.882;6.962;2023-02-15T04:10:39;102220.00;;;3.46;100.00
34500;BME280;20745;50.882;6.962;2023-02-15T04:13:22;102211.03;;;3.47;100.00
34500;BME280;20745;50.882;6.962;2023-02-15T04:15:49;102215.47;;;3.34;100.00
34500;BME280;20745;50.882;6.962;2023-02-15T04:18:36;102214.94;;;3.41;100.00
34500;BME280;20745;50.882;6.962;2023-02-15T04:21:23;102201.81;;;3.38;100.00
34500;BME280;20745;50.882;6.962;2023-02-15T04:24:09;102202.47;;;3.42;100.00
34500;BME280;20745;50.882;6.962;2023-02-15T04:26:55;102202.16;;;3.46;100.00
34500;BME280;20745;50.882;6.962;2023-02-15T04:29:25;102202.84;;;3.36;100.00
34500;BME280;20745;50.882;6.962;2023-02-15T04:31:53;102201.69;;;3.40;100.00
34500;BME280;20745;50.882;6.962;2023-02-15T04:34:20;102203.81;;;3.35;100.00
34500;BME280;20745;50.882;6.962;2023-02-15T04:36:47;102191.78;;;3.42;100.00
34500;BME280;20745;50.882;6.962;2023-02-15T04:39:14;102200.09;;;3.37;100.00
34500;BME280;20745;50.882;6.962;2023-02-15T04:41:41;102188.75;;;3.34;100.00
34500;BME280;20745;50.882;6.962;2023-02-15T04:44:08;102189.50;;;3.36;100.00
34500;BME280;20745;50.882;6.962;2023-02-15T04:46:35;102187.03;;;3.33;100.00
34500;BME280;20745;50.882;6.962;2023-02-15T04:49:01;102188.84;;;3.32;100.00
34500;BME280;20745;50.882;6.962;2023-02-15T04:51:28;102197.50;;;3.36;100.00
34500;BME280;20745;50.882;6.962;2023-02-15T04:53:54;102191.34;;;3.35;100.00
34500;BME280;20745;50.882;6.962;2023-02-15T04:56:22;102195.81;;;3.35;100.00
34500;BME280;20745;50.882;6.962;2023-02-15T04:58:48;102184.97;;;3.24;100.00
34500;BME280;20745;50.882;6.962;2023-02-15T05:01:15;102184.00;;;3.25;100.00
34500;BME280;20745;50.882;6.962;2023-02-15T05:03:41;102189.59;;;3.34;100.00
34500;BME280;20745;50.882;6.962;2023-02-15T05:06:08;102200.38;;;3.33;100.00
34500;BME280;20745;50.882;6.962;2023-02-15T05:08:34;102179.53;;;3.25;100.00
34500;BME280;20745;50.882;6.962;2023-02-15T05:11:01;102197.72;;;3.33;100.00
34500;BME280;20745;50.882;6.962;2023-02-15T05:13:27;102189.16;;;3.28;100.00
34500;BME280;20745;50.882;6.962;2023-02-15T05:15:54;102193.91;;;3.37;100.00
34500;BME280;20745;50.882;6.962;2023-02-15T05:18:21;102191.53;;;3.32;100.00
34500;BME280;20745;50.882;6.962;2023-02-15T05:20:48;102181.78;;;3.31;100.00
34500;BME280;20745;50.882;6.962;2023-02-15T05:23:15;102179.44;;;3.27;100.00
34500;BME280;20745;50.882;6.962;2023-02-15T05:25:47;102181.91;;;3.16;100.00
34500;BME280;20745;50.882;6.962;2023-02-15T05:28:33;102186.00;;;3.21;100.00
34500;BME280;20745;50.882;6.962;2023-02-15T05:31:08;102190.13;;;3.27;100.00
34500;BME280;20745;50.882;6.962;2023-02-15T05:33:36;102183.81;;;3.28;100.00
34500;BME280;20745;50.882;6.962;2023-02-15T05:36:04;102188.56;;;3.23;100.00
34500;BME280;20745;50.882;6.962;2023-02-15T05:38:31;102186.97;;;3.20;100.00
34500;BME280;20745;50.882;6.962;2023-02-15T05:40:58;102180.13;;;3.16;100.00
34500;BME280;20745;50.882;6.962;2023-02-15T05:43:25;102189.94;;;3.16;100.00
34500;BME280;20745;50.882;6.962;2023-02-15T05:45:54;102184.41;;;3.19;100.00
34500;BME280;20745;50.882;6.962;2023-02-15T05:48:22;102194.13;;;3.20;100.00
34500;BME280;20745;50.882;6.962;2023-02-15T05:51:06;102191.53;;;3.18;100.00
34500;BME280;20745;50.882;6.962;2023-02-15T05:53:36;102181.53;;;3.22;100.00
34500;BME280;20745;50.882;6.962;2023-02-15T05:56:03;102174.97;;;3.13;100.00
34500;BME280;20745;50.882;6.962;2023-02-15T05:58:35;102177.75;;;3.12;100.00
34500;BME280;20745;50.882;6.962;2023-02-15T06:03:36;102184.97;;;3.10;100.00
34500;BME280;20745;50.882;6.962;2023-02-15T06:06:02;102175.56;;;3.04;100.00
34500;BME280;20745;50.882;6.962;2023-02-15T06:08:31;102178.81;;;3.09;100.00
34500;BME280;20745;50.882;6.962;2023-02-15T06:10:58;102185.22;;;3.07;100.00
34500;BME280;20745;50.882;6.962;2023-02-15T06:13:24;102177.75;;;3.12;100.00
34500;BME280;20745;50.882;6.962;2023-02-15T06:15:51;102185.75;;;3.12;100.00
34500;BME280;20745;50.882;6.962;2023-02-15T06:18:17;102186.13;;;3.06;100.00
34500;BME280;20745;50.882;6.962;2023-02-15T06:20:47;102172.78;;;3.06;100.00
34500;BME280;20745;50.882;6.962;2023-02-15T06:23:14;102174.63;;;3.05;100.00
34500;BME280;20745;50.882;6.962;2023-02-15T06:25:41;102175.06;;;3.12;100.00
34500;BME280;20745;50.882;6.962;2023-02-15T06:28:08;102180.72;;;3.07;100.00
34500;BME280;20745;50.882;6.962;2023-02-15T06:30:34;102178.13;;;3.06;100.00
34500;BME280;20745;50.882;6.962;2023-02-15T06:33:00;102190.53;;;3.07;100.00
34500;BME280;20745;50.882;6.962;2023-02-15T06:35:27;102184.78;;;3.13;100.00
34500;BME280;20745;50.882;6.962;2023-02-15T06:37:54;102193.00;;;3.10;100.00
34500;BME280;20745;50.882;6.962;2023-02-15T06:40:20;102195.00;;;3.06;100.00
34500;BME280;20745;50.882;6.962;2023-02-15T06:42:46;102188.41;;;3.12;100.00
34500;BME280;20745;50.882;6.962;2023-02-15T06:45:13;102186.97;;;3.20;100.00
34500;BME280;20745;50.882;6.962;2023-02-15T06:47:39;102194.22;;;3.18;100.00
34500;BME280;20745;50.882;6.962;2023-02-15T06:50:07;102186.63;;;3.12;100.00
34500;BME280;20745;50.882;6.962;2023-02-15T06:52:33;102181.81;;;3.17;100.00
34500;BME280;20745;50.882;6.962;2023-02-15T06:55:00;102182.03;;;3.14;100.00
34500;BME280;20745;50.882;6.962;2023-02-15T06:57:27;102186.09;;;3.20;100.00
34500;BME280;20745;50.882;6.962;2023-02-15T06:59:53;102184.41;;;3.19;100.00
34500;BME280;20745;50.882;6.962;2023-02-15T07:02:19;102186.53;;;3.14;100.00
34500;BME280;20745;50.882;6.962;2023-02-15T07:04:46;102192.41;;;3.19;100.00
34500;BME280;20745;50.882;6.962;2023-02-15T07:07:13;102188.88;;;3.18;100.00
34500;BME280;20745;50.882;6.962;2023-02-15T07:09:39;102190.50;;;3.21;100.00
34500;BME280;20745;50.882;6.962;2023-02-15T07:12:06;102193.19;;;3.21;100.00
34500;BME280;20745;50.882;6.962;2023-02-15T07:14:51;102189.44;;;3.23;100.00
34500;BME280;20745;50.882;6.962;2023-02-15T07:17:18;102188.22;;;3.15;100.00
34500;BME280;20745;50.882;6.962;2023-02-15T07:20:10;102186.09;;;3.20;100.00
34500;BME280;20745;50.882;6.962;2023-02-15T07:22:37;102184.19;;;3.22;100.00
34500;BME280;20745;50.882;6.962;2023-02-15T07:25:06;102183.34;;;3.21;100.00
34500;BME280;20745;50.882;6.962;2023-02-15T07:27:33;102180.13;;;3.16;100.00
34500;BME280;20745;50.882;6.962;2023-02-15T07:30:00;102181.63;;;3.20;100.00
34500;BME280;20745;50.882;6.962;2023-02-15T07:32:28;102174.41;;;3.22;100.00
34500;BME280;20745;50.882;6.962;2023-02-15T07:34:56;102172.47;;;3.24;100.00
34500;BME280;20745;50.882;6.962;2023-02-15T07:37:23;102165.03;;;3.29;100.00
34500;BME280;20745;50.882;6.962;2023-02-15T07:39:50;102162.06;;;3.34;100.00
34500;BME280;20745;50.882;6.962;2023-02-15T07:42:16;102160.31;;;3.33;100.00
34500;BME280;20745;50.882;6.962;2023-02-15T07:44:44;102148.63;;;3.35;100.00
34500;BME280;20745;50.882;6.962;2023-02-15T07:47:10;102133.38;;;3.23;100.00
34500;BME280;20745;50.882;6.962;2023-02-15T07:49:37;102142.84;;;3.41;100.00
34500;BME280;20745;50.882;6.962;2023-02-15T07:52:04;102135.78;;;3.40;100.00
34500;BME280;20745;50.882;6.962;2023-02-15T07:54:31;102145.59;;;3.40;100.00
34500;BME280;20745;50.882;6.962;2023-02-15T07:56:57;102140.63;;;3.48;100.00
34500;BME280;20745;50.882;6.962;2023-02-15T07:59:23;102140.06;;;3.43;100.00
34500;BME280;20745;50.882;6.962;2023-02-15T08:01:50;102136.03;;;3.50;100.00
34500;BME280;20745;50.882;6.962;2023-02-15T08:04:19;102141.75;;;3.58;100.00
34500;BME280;20745;50.882;6.962;2023-02-15T08:06:45;102133.53;;;3.61;100.00
34500;BME280;20745;50.882;6.962;2023-02-15T08:09:11;102134.59;;;3.58;100.00
34500;BME280;20745;50.882;6.962;2023-02-15T08:11:38;102138.09;;;3.59;100.00
34500;BME280;20745;50.882;6.962;2023-02-15T08:16:37;102126.03;;;3.66;100.00
34500;BME280;20745;50.882;6.962;2023-02-15T08:19:16;102128.19;;;3.61;100.00
34500;BME280;20745;50.882;6.962;2023-02-15T08:21:46;102119.00;;;3.65;100.00
34500;BME280;20745;50.882;6.962;2023-02-15T08:24:14;102122.19;;;3.70;100.00
34500;BME280;20745;50.882;6.962;2023-02-15T08:26:42;102125.22;;;3.78;100.00
34500;BME280;20745;50.882;6.962;2023-02-15T08:29:11;102124.56;;;3.74;100.00
34500;BME280;20745;50.882;6.962;2023-02-15T08:31:37;102115.50;;;3.77;100.00
34500;BME280;20745;50.882;6.962;2023-02-15T08:34:05;102114.13;;;3.84;100.00
34500;BME280;20745;50.882;6.962;2023-02-15T08:36:32;102112.75;;;3.91;100.00
34500;BME280;20745;50.882;6.962;2023-02-15T08:39:00;102116.91;;;3.95;100.00
34500;BME280;20745;50.882;6.962;2023-02-15T08:41:30;102120.34;;;3.97;100.00
34500;BME280;20745;50.882;6.962;2023-02-15T08:43:59;102120.13;;;4.00;100.00
34500;BME280;20745;50.882;6.962;2023-02-15T08:46:28;102113.19;;;4.10;100.00
34500;BME280;20745;50.882;6.962;2023-02-15T08:48:56;102111.78;;;4.17;100.00
34500;BME280;20745;50.882;6.962;2023-02-15T08:51:24;102116.28;;;4.16;100.00
34500;BME280;20745;50.882;6.962;2023-02-15T08:53:53;102104.31;;;4.09;100.00
34500;BME280;20745;50.882;6.962;2023-02-15T08:56:26;102100.88;;;4.20;100.00
34500;BME280;20745;50.882;6.962;2023-02-15T08:58:53;102108.66;;;4.23;100.00
34500;BME280;20745;50.882;6.962;2023-02-15T09:01:23;102105.25;;;4.21;100.00
34500;BME280;20745;50.882;6.962;2023-02-15T09:03:52;102113.38;;;4.32;100.00
34500;BME280;20745;50.882;6.962;2023-02-15T09:06:21;102108.69;;;4.35;100.00
34500;BME280;20745;50.882;6.962;2023-02-15T09:08:49;102114.44;;;4.42;100.00
34500;BME280;20745;50.882;6.962;2023-02-15T09:11:18;102106.00;;;4.48;100.00
34500;BME280;20745;50.882;6.962;2023-02-15T09:13:57;102101.41;;;4.50;100.00
34500;BME280;20745;50.882;6.962;2023-02-15T09:16:27;102100.84;;;4.57;100.00
34500;BME280;20745;50.882;6.962;2023-02-15T09:18:56;102100.28;;;4.65;100.00
34500;BME280;20745;50.882;6.962;2023-02-15T09:21:28;102099.75;;;4.72;100.00
34500;BME280;20745;50.882;6.962;2023-02-15T09:24:00;102087.50;;;4.81;100.00
34500;BME280;20745;50.882;6.962;2023-02-15T09:26:28;102100.56;;;4.85;100.00
34500;BME280;20745;50.882;6.962;2023-02-15T09:28:58;102096.06;;;4.86;100.00
34500;BME280;20745;50.882;6.962;2023-02-15T09:31:29;102103.75;;;4.90;100.00
34500;BME280;20745;50.882;6.962;2023-02-15T09:33:58;102107.78;;;4.96;100.00
34500;BME280;20745;50.882;6.962;2023-02-15T09:36:35;102102.66;;;5.05;100.00
34500;BME280;20745;50.882;6.962;2023-02-15T09:39:14;102111.19;;;5.10;100.00
34500;BME280;20745;50.882;6.962;2023-02-15T09:47:12;102102.41;;;5.32;100.00
34500;BME280;20745;50.882;6.962;2023-02-15T09:52:48;102110.25;;;5.46;100.00
34500;BME280;20745;50.882;6.962;2023-02-15T09:55:34;102101.88;;;5.51;100.00
34500;BME280;20745;50.882;6.962;2023-02-15T09:58:24;102104.97;;;5.57;100.00
34500;BME280;20745;50.882;6.962;2023-02-15T10:04:07;102097.53;;;5.61;100.00
34500;BME280;20745;50.882;6.962;2023-02-15T10:06:37;102104.53;;;5.74;100.00
34500;BME280;20745;50.882;6.962;2023-02-15T10:09:24;102092.41;;;5.81;100.00
34500;BME280;20745;50.882;6.962;2023-02-15T10:14:45;102093.53;;;5.90;100.00
34500;BME280;20745;50.882;6.962;2023-02-15T10:20:41;102095.34;;;5.89;100.00
34500;BME280;20745;50.882;6.962;2023-02-15T10:29:02;102086.66;;;6.20;100.00
34500;BME280;20745;50.882;6.962;2023-02-15T10:37:02;102093.81;;;6.31;100.00
34500;BME280;20745;50.882;6.962;2023-02-15T10:39:45;102087.75;;;6.40;100.00
34500;BME280;20745;50.882;6.962;2023-02-15T10:50:24;102084.81;;;6.76;100.00
34500;BME280;20745;50.882;6.962;2023-02-15T10:53:08;102078.19;;;6.80;100.00
34500;BME280;20745;50.882;6.962;2023-02-15T10:56:02;102084.19;;;6.83;100.00
34500;BME280;20745;50.882;6.962;2023-02-15T11:01:56;102073.16;;;6.97;100.00
34500;BME280;20745;50.882;6.962;2023-02-15T11:07:11;102053.34;;;7.09;100.00
34500;BME280;20745;50.882;6.962;2023-02-15T11:09:47;102057.97;;;7.18;100.00
34500;BME280;20745;50.882;6.962;2023-02-15T11:12:18;102050.38;;;7.23;100.00
34500;BME280;20745;50.882;6.962;2023-02-15T11:14:53;102053.53;;;7.28;100.00
34500;BME280;20745;50.882;6.962;2023-02-15T11:17:31;102047.16;;;7.29;100.00
34500;BME280;20745;50.882;6.962;2023-02-15T11:22:48;102045.69;;;7.36;100.00
34500;BME280;20745;50.882;6.962;2023-02-15T11:25:34;102045.03;;;7.44;100.00
34500;BME280;20745;50.882;6.962;2023-02-15T11:28:04;102037.06;;;7.53;100.00
34500;BME280;20745;50.882;6.962;2023-02-15T11:31:13;102040.06;;;7.60;100.00
34500;BME280;20745;50.882;6.962;2023-02-15T11:33:45;102024.41;;;7.65;100.00
34500;BME280;20745;50.882;6.962;2023-02-15T11:36:14;102030.34;;;7.69;100.00
34500;BME280;20745;50.882;6.962;2023-02-15T11:38:44;102028.00;;;7.75;100.00
34500;BME280;20745;50.882;6.962;2023-02-15T11:41:19;102018.56;;;7.81;100.00
34500;BME280;20745;50.882;6.962;2023-02-15T11:46:23;102017.56;;;8.02;99.05
34500;BME280;20745;50.882;6.962;2023-02-15T11:48:49;102024.97;;;8.10;99.15
34500;BME280;20745;50.882;6.962;2023-02-15T11:51:21;102013.38;;;8.19;98.36
34500;BME280;20745;50.882;6.962;2023-02-15T11:53:50;102011.03;;;8.25;98.48
34500;BME280;20745;50.882;6.962;2023-02-15T11:56:20;102008.63;;;8.32;98.60
34500;BME280;20745;50.882;6.962;2023-02-15T11:59:00;102010.66;;;8.39;98.04
34500;BME280;20745;50.882;6.962;2023-02-15T12:06:57;101986.91;;;8.54;98.04
34500;BME280;20745;50.882;6.962;2023-02-15T12:09:37;101979.53;;;8.56;97.48
34500;BME280;20745;50.882;6.962;2023-02-15T12:12:26;101982.72;;;8.80;94.91
34500;BME280;20745;50.882;6.962;2023-02-15T12:14:59;101989.94;;;8.89;94.52
34500;BME280;20745;50.882;6.962;2023-02-15T12:17:50;101979.75;;;8.92;94.64
34500;BME280;20745;50.882;6.962;2023-02-15T12:23:04;101983.84;;;9.06;95.23
34500;BME280;20745;50.882;6.962;2023-02-15T12:25:40;101967.56;;;9.17;94.28
34500;BME280;20745;50.882;6.962;2023-02-15T12:28:26;101966.28;;;9.21;94.39
34500;BME280;20745;50.882;6.962;2023-02-15T12:30:56;101954.22;;;9.25;94.17
34500;BME280;20745;50.882;6.962;2023-02-15T12:33:41;101959.31;;;9.28;93.46
34500;BME280;20745;50.882;6.962;2023-02-15T12:36:12;101955.06;;;9.35;92.04
34500;BME280;20745;50.882;6.962;2023-02-15T12:38:41;101955.50;;;9.40;92.70
34500;BME280;20745;50.882;6.962;2023-02-15T12:41:25;101948.22;;;9.40;92.53
34500;BME280;20745;50.882;6.962;2023-02-15T12:44:18;101948.66;;;9.45;91.69
34500;BME280;20745;50.882;6.962;2023-02-15T12:47:04;101937.31;;;9.51;91.50
34500;BME280;20745;50.882;6.962;2023-02-15T12:49:37;101923.81;;;9.42;92.32
34500;BME280;20745;50.882;6.962;2023-02-15T12:52:25;101936.28;;;9.52;91.95
34500;BME280;20745;50.882;6.962;2023-02-15T12:54:51;101937.13;;;9.62;90.95
34500;BME280;20745;50.882;6.962;2023-02-15T12:57:27;101922.50;;;9.65;90.53
34500;BME280;20745;50.882;6.962;2023-02-15T13:00:00;101918.50;;;9.69;90.88
34500;BME280;20745;50.882;6.962;2023-02-15T13:02:31;101921.75;;;9.72;91.16
34500;BME280;20745;50.882;6.962;2023-02-15T13:07:34;101923.13;;;9.86;90.09
34500;BME280;20745;50.882;6.962;2023-02-15T13:10:01;101913.75;;;9.90;90.10
34500;BME280;20745;50.882;6.962;2023-02-15T13:12:30;101914.13;;;9.95;89.72
34500;BME280;20745;50.882;6.962;2023-02-15T13:14:58;101911.84;;;10.00;89.25
34500;BME280;20745;50.882;6.962;2023-02-15T13:17:28;101903.75;;;10.00;89.43
34500;BME280;20745;50.882;6.962;2023-02-15T13:20:00;101902.03;;;9.99;89.81
34500;BME280;20745;50.882;6.962;2023-02-15T13:22:43;101891.41;;;9.97;90.61
34500;BME280;20745;50.882;6.962;2023-02-15T13:25:18;101888.53;;;9.99;90.39
34500;BME280;20745;50.882;6.962;2023-02-15T13:27:50;101886.00;;;10.07;90.43
34500;BME280;20745;50.882;6.962;2023-02-15T13:30:28;101886.00;;;10.07;90.34
34500;BME280;20745;50.882;6.962;2023-02-15T13:33:03;101886.00;;;10.07;89.85
34500;BME280;20745;50.882;6.962;2023-02-15T13:35:39;101886.53;;;10.11;90.24
34500;BME280;20745;50.882;6.962;2023-02-15T13:41:12;101872.78;;;10.04;90.62
34500;BME280;20745;50.882;6.962;2023-02-15T13:43:50;101876.81;;;10.18;89.44
34500;BME280;20745;50.882;6.962;2023-02-15T13:46:42;101868.56;;;10.19;89.61
34500;BME280;20745;50.882;6.962;2023-02-15T13:57:21;101846.56;;;10.41;88.20
34500;BME280;20745;50.882;6.962;2023-02-15T14:00:09;101853.34;;;10.45;88.12
34500;BME280;20745;50.882;6.962;2023-02-15T14:06:11;101845.50;;;10.52;86.47
34500;BME280;20745;50.882;6.962;2023-02-15T14:14:22;101856.16;;;10.53;87.95
34500;BME280;20745;50.882;6.962;2023-02-15T14:17:27;101854.44;;;10.52;87.54
34500;BME280;20745;50.882;6.962;2023-02-15T14:20:23;101852.97;;;10.58;87.05
34500;BME280;20745;50.882;6.962;2023-02-15T14:23:11;101844.03;;;10.57;86.93
34500;BME280;20745;50.882;6.962;2023-02-15T14:25:51;101850.25;;;10.58;86.56
34500;BME280;20745;50.882;6.962;2023-02-15T14:28:38;101842.16;;;10.58;85.90
34500;BME280;20745;50.882;6.962;2023-02-15T14:31:11;101840.88;;;10.62;85.95
34500;BME280;20745;50.882;6.962;2023-02-15T14:33:41;101845.81;;;10.66;85.67
34500;BME280;20745;50.882;6.962;2023-02-15T14:36:15;101848.09;;;10.61;86.36
34500;BME280;20745;50.882;6.962;2023-02-15T14:39:05;101845.56;;;10.60;86.42
34500;BME280;20745;50.882;6.962;2023-02-15T14:42:00;101844.25;;;10.64;86.49
34500;BME280;20745;50.882;6.962;2023-02-15T14:47:36;101848.81;;;10.63;87.22
34500;BME280;20745;50.882;6.962;2023-02-15T14:58:37;101839.69;;;10.64;88.07
34500;BME280;20745;50.882;6.962;2023-02-15T15:01:06;101839.41;;;10.67;87.48
34500;BME280;20745;50.882;6.962;2023-02-15T15:03:34;101841.38;;;10.65;88.54
34500;BME280;20745;50.882;6.962;2023-02-15T15:06:03;101853.06;;;10.66;87.13
34500;BME280;20745;50.882;6.962;2023-02-15T15:08:36;101845.81;;;10.66;87.58
34500;BME280;20745;50.882;6.962;2023-02-15T15:11:46;101840.72;;;10.63;87.50
34500;BME280;20745;50.882;6.962;2023-02-15T15:16:59;101811.00;;;10.46;88.21
34500;BME280;20745;50.882;6.962;2023-02-15T15:22:20;101826.81;;;10.58;87.83
34500;BME280;20745;50.882;6.962;2023-02-15T15:24:49;101834.44;;;10.63;88.91
34500;BME280;20745;50.882;6.962;2023-02-15T15:35:33;101835.38;;;10.54;89.60
34500;BME280;20745;50.882;6.962;2023-02-15T15:38:21;101850.75;;;10.53;89.51
34500;BME280;20745;50.882;6.962;2023-02-15T15:46:15;101832.97;;;10.33;91.20